D/T METAR WX W/DIR W/SPE G/SPE TEMP DEWP
13/07/20 15:21 EGXW 131421Z 24014KT 9999 FEW025 BKN029 20/13 Q1019 TEMPO SCT020 RMK BLU TEMPO WHT WSW (240°) 16.1mph 20°C 13°C
13/07/20 14:50 EGXW 131350Z 25015KT 9999 SCT026 BKN033 20/13 Q1020 NOSIG RMK BLU BLU WSW (250°) 17.3mph 20°C 13°C
13/07/20 14:22 EGXW 131322Z 26013KT 9999 -RA SCT030 BKN250 20/13 Q1020 NOSIG RMK BLU BLU -RA W (260°) 15.0mph 20°C 13°C
13/07/20 13:50 EGXW 131250Z 24013KT 9999 SCT030 21/13 Q1020 NOSIG RMK BLU BLU WSW (240°) 15.0mph 21°C 13°C
13/07/20 13:21 EGXW 131221Z 24014KT 9999 FEW030 SCT050 BKN250 21/13 Q1020 NOSIG RMK BLU BLU WSW (240°) 16.1mph 21°C 13°C
13/07/20 12:50 EGXW 131150Z 22014KT 9999 FEW028 BKN050 BKN250 20/13 Q1020 NOSIG RMK BLU BLU SW (220°) 16.1mph 20°C 13°C
13/07/20 12:22 EGXW 131122Z 23012KT 9999 FEW043 BKN050 19/12 Q1021 NOSIG RMK BLU BLU SW (230°) 13.8mph 19°C 12°C
13/07/20 11:50 EGXW 131050Z 22012KT 9999 FEW041 BKN050 18/12 Q1021 NOSIG RMK BLU BLU SW (220°) 13.8mph 18°C 12°C
13/07/20 11:21 EGXW 131021Z 22012KT 9999 FEW041 BKN060 18/12 Q1022 NOSIG RMK BLU BLU SW (220°) 13.8mph 18°C 12°C
13/07/20 10:50 EGXW 130950Z 23010KT 9999 -RA SCT036 BKN080 BKN250 17/11 Q1022 NOSIG RMK BLU BLU -RA SW (230°) 11.5mph 17°C 11°C
13/07/20 10:20 EGXW 130920Z 24010KT 9999 -RA FEW027 SCT050 BKN090 16/11 Q1022 NOSIG RMK BLU BLU -RA WSW (240°) 11.5mph 16°C 11°C
13/07/20 09:50 EGXW 130850Z 24011KT 9999 FEW048 BKN080 17/10 Q1022 NOSIG RMK BLU BLU WSW (240°) 12.7mph 17°C 10°C
13/07/20 09:21 EGXW 130821Z 24010KT CAVOK 17/10 Q1022 NOSIG RMK BLU BLU WSW (240°) 11.5mph 17°C 10°C
13/07/20 08:50 EGXW 130750Z 24009KT CAVOK 17/10 Q1022 NOSIG RMK BLU BLU WSW (240°) 10.4mph 17°C 10°C
13/07/20 08:22 EGXW 130722Z 24009KT CAVOK 16/09 Q1022 NOSIG RMK BLU BLU WSW (240°) 10.4mph 16°C 9°C
13/07/20 07:50 EGXW 130650Z 24008KT CAVOK 16/10 Q1022 NOSIG RMK BLU BLU WSW (240°) 9.2mph 16°C 10°C
13/07/20 06:50 EGXW 130550Z 22008KT CAVOK 15/09 Q1023 BLU RMK BLU SW (220°) 9.2mph 15°C 9°C
13/07/20 05:50 EGXW 130450Z AUTO 22006KT 9999 FEW060/// 14/08 Q1023 SW (220°) 6.9mph 14°C 8°C
13/07/20 04:50 EGXW 130350Z AUTO 22008KT 9999 FEW090/// BKN120/// 14/08 Q1023 SW (220°) 9.2mph 14°C 8°C
13/07/20 03:50 EGXW 130250Z AUTO 21006KT 9999 BKN090/// 13/08 Q1023 SSW (210°) 6.9mph 13°C 8°C
13/07/20 02:50 EGXW 130150Z AUTO 23005KT 9999 SCT100/// 13/09 Q1024 SW (230°) 5.8mph 13°C 9°C
13/07/20 01:50 EGXW 130050Z AUTO 25004KT 9999 NCD 14/09 Q1024 WSW (250°) 4.6mph 14°C 9°C
13/07/20 00:50 EGXW 122350Z AUTO 21005KT 9999 NCD 13/12 Q1025 SSW (210°) 5.8mph 13°C 12°C
12/07/20 23:50 EGXW 122250Z AUTO 15005KT 9999 NCD 13/10 Q1025 SSE (150°) 5.8mph 13°C 10°C
12/07/20 22:50 EGXW 122150Z AUTO 13006KT 9999 FEW130/// 14/09 Q1025 SE (130°) 6.9mph 14°C 9°C
12/07/20 21:50 EGXW 122050Z AUTO 15004KT 9999 SCT130/// 17/09 Q1025 SSE (150°) 4.6mph 17°C 9°C
12/07/20 20:50 EGXW 121950Z AUTO 23002KT 9999 NCD 19/07 Q1025 REDZ SW (230°) 2.3mph 19°C 7°C
12/07/20 19:50 EGXW 121850Z AUTO 22004KT 9999 FEW140/// 21/07 Q1025 SW (220°) 4.6mph 21°C 7°C
12/07/20 18:50 EGXW 121750Z AUTO 24004KT 9999 FEW170/// 20/07 Q1026 RERA WSW (240°) 4.6mph 20°C 7°C
12/07/20 17:50 EGXW 121650Z AUTO 26005KT 9999 FEW049/// SCT170/// 20/08 Q1026 RERA W (260°) 5.8mph 20°C 8°C
12/07/20 16:50 EGXW 121550Z AUTO 23009KT 9999 NCD 21/09 Q1027 RERA SW (230°) 10.4mph 21°C 9°C
12/07/20 15:50 EGXW 121450Z AUTO 22008KT 9999 FEW044/// 20/08 Q1027 RERA SW (220°) 9.2mph 20°C 8°C
12/07/20 14:50 EGXW 121350Z AUTO 24004KT 9999 FEW040/// 19/08 Q1028 WSW (240°) 4.6mph 19°C 8°C
12/07/20 13:50 EGXW 121250Z AUTO 24006KT 9999 SCT039/// 19/08 Q1028 RERA WSW (240°) 6.9mph 19°C 8°C
12/07/20 12:50 EGXW 121150Z AUTO 24005KT 9999 FEW040/// 18/07 Q1028 RERA WSW (240°) 5.8mph 18°C 7°C
12/07/20 11:50 EGXW 121050Z AUTO 24003KT 9999 SCT037/// 17/07 Q1028 RERA WSW (240°) 3.5mph 17°C 7°C
12/07/20 10:50 EGXW 120950Z AUTO 24006KT 9999 -RA SCT032/// 17/08 Q1029 -RA WSW (240°) 6.9mph 17°C 8°C
12/07/20 09:50 EGXW 120850Z AUTO 28003KT 9999 NCD 15/08 Q1028 REDZ W (280°) 3.5mph 15°C 8°C
12/07/20 08:50 EGXW 120750Z AUTO 31004KT 9999 NCD 14/09 Q1029 NW (310°) 4.6mph 14°C 9°C
12/07/20 07:50 EGXW 120650Z AUTO 28005KT 9999 NCD 11/08 Q1029 W (280°) 5.8mph 11°C 8°C
12/07/20 06:50 EGXW 120550Z AUTO 26006KT 9999 NCD 10/08 Q1028 W (260°) 6.9mph 10°C 8°C
12/07/20 05:50 EGXW 120450Z AUTO 26006KT 9999 NCD 09/07 Q1028 W (260°) 6.9mph 9°C 7°C
12/07/20 04:50 EGXW 120350Z AUTO 23003KT 9999 NCD 09/07 Q1028 SW (230°) 3.5mph 9°C 7°C
12/07/20 03:50 EGXW 120250Z AUTO 26006KT 9999 NCD 10/07 Q1028 W (260°) 6.9mph 10°C 7°C
12/07/20 02:50 EGXW 120150Z AUTO 27007KT 9999 NCD 10/07 Q1028 W (270°) 8.1mph 10°C 7°C
12/07/20 01:50 EGXW 120050Z AUTO 28007KT 9999 NCD 11/07 Q1028 W (280°) 8.1mph 11°C 7°C
12/07/20 00:50 EGXW 112350Z AUTO 28006KT 9999 NCD 12/07 Q1028 W (280°) 6.9mph 12°C 7°C
11/07/20 23:50 EGXW 112250Z AUTO 29004KT 9999 NCD 13/07 Q1028 WNW (290°) 4.6mph 13°C 7°C
11/07/20 22:50 EGXW 112150Z AUTO 30003KT 9999 NCD 13/07 Q1028 WNW (300°) 3.5mph 13°C 7°C
11/07/20 21:50 EGXW 112050Z AUTO 32003KT 9999 NCD 14/07 Q1028 NW (320°) 3.5mph 14°C 7°C
11/07/20 20:50 EGXW 111950Z AUTO 30004KT 9999 FEW050/// 15/07 Q1027 WNW (300°) 4.6mph 15°C 7°C
11/07/20 19:50 EGXW 111850Z AUTO 30010KT 9999 SCT050/// 17/06 Q1027 WNW (300°) 11.5mph 17°C 6°C
11/07/20 18:50 EGXW 111750Z AUTO 31011KT 9999 BKN050/// 18/07 Q1027 RERA NW (310°) 12.7mph 18°C 7°C
11/07/20 17:50 EGXW 111650Z AUTO 32008KT 9999 FEW044/// BKN060/// 17/06 Q1026 NW (320°) 9.2mph 17°C 6°C
11/07/20 16:50 EGXW 111550Z AUTO 32008KT 9999 BKN060/// 18/07 Q1026 NW (320°) 9.2mph 18°C 7°C
11/07/20 15:50 EGXW 111450Z AUTO 30011KT 9999 BKN060/// 18/06 Q1026 WNW (300°) 12.7mph 18°C 6°C
11/07/20 14:50 EGXW 111350Z AUTO 28009KT 9999 OVC050/// 17/07 Q1026 W (280°) 10.4mph 17°C 7°C
11/07/20 13:50 EGXW 111250Z AUTO 32010KT 9999 BKN060/// 17/07 Q1026 RERA NW (320°) 11.5mph 17°C 7°C
11/07/20 12:50 EGXW 111150Z AUTO 29010KT 9999 SCT042/// SCT060/// 17/06 Q1026 WNW (290°) 11.5mph 17°C 6°C
11/07/20 11:50 EGXW 111050Z AUTO 32009KT 9999 FEW035/// BKN048/// 17/08 Q1026 NW (320°) 10.4mph 17°C 8°C
11/07/20 10:50 EGXW 110950Z AUTO 31010KT 9999 BKN031/// 16/08 Q1025 NW (310°) 11.5mph 16°C 8°C
11/07/20 09:50 EGXW 110850Z AUTO 32008KT 9999 BKN023/// 15/09 Q1025 NW (320°) 9.2mph 15°C 9°C
11/07/20 08:50 EGXW 110750Z AUTO 32010KT 9999 SCT022/// 14/08 Q1025 NW (320°) 11.5mph 14°C 8°C
11/07/20 07:50 EGXW 110650Z AUTO 30010KT 9999 NCD 13/09 Q1024 WNW (300°) 11.5mph 13°C 9°C
11/07/20 06:50 EGXW 110550Z AUTO 28006KT 9999 NCD 11/08 Q1024 W (280°) 6.9mph 11°C 8°C
11/07/20 05:50 EGXW 110450Z AUTO 27006KT 9999 FEW060/// 10/08 Q1023 W (270°) 6.9mph 10°C 8°C
11/07/20 04:50 EGXW 110350Z AUTO 26007KT 9999 SCT050/// 10/08 Q1023 W (260°) 8.1mph 10°C 8°C
11/07/20 03:50 EGXW 110250Z AUTO 26006KT 9999 NCD 10/08 Q1022 W (260°) 6.9mph 10°C 8°C
11/07/20 02:50 EGXW 110150Z AUTO 26006KT 9999 NCD 10/08 Q1022 W (260°) 6.9mph 10°C 8°C
11/07/20 01:50 EGXW 110050Z AUTO 27006KT 9999 NCD 11/08 Q1022 W (270°) 6.9mph 11°C 8°C
11/07/20 00:50 EGXW 102350Z AUTO 27005KT 9999 NCD 11/08 Q1022 W (270°) 5.8mph 11°C 8°C
10/07/20 23:50 EGXW 102250Z AUTO 27005KT 9999 NCD 12/09 Q1022 W (270°) 5.8mph 12°C 9°C
10/07/20 22:50 EGXW 102150Z AUTO 27006KT 9999 FEW060/// 12/10 Q1021 W (270°) 6.9mph 12°C 10°C
10/07/20 21:50 EGXW 102050Z AUTO 27005KT 9999 OVC060/// 13/10 Q1021 W (270°) 5.8mph 13°C 10°C
10/07/20 20:50 EGXW 101950Z AUTO 31006KT 9999 OVC060/// 14/09 Q1020 NW (310°) 6.9mph 14°C 9°C
10/07/20 19:50 EGXW 101850Z AUTO 29010KT 9999 BKN080/// 14/10 Q1020 WNW (290°) 11.5mph 14°C 10°C
10/07/20 18:50 EGXW 101750Z AUTO 28008KT 9999 BKN060/// 14/10 Q1019 W (280°) 9.2mph 14°C 10°C
10/07/20 17:50 EGXW 101650Z 29007KT 9999 FEW025CB SCT040 BKN070 15/10 Q1019 NOSIG RMK BLU BLU WNW (290°) 8.1mph 15°C 10°C
10/07/20 17:20 EGXW 101620Z 33010KT 9999 SCT025CB BKN070 15/09 Q1019 NOSIG RMK BLU BLU NNW (330°) 11.5mph 15°C 9°C
10/07/20 16:50 EGXW 101550Z 01012KT 9999 VCSH SCT025CB SCT040 14/09 Q1018 TEMPO 6000 SHRA BKN020CB RMK BLU TEMPO WHT VCSH N (10°) 13.8mph 14°C 9°C
10/07/20 16:24 EGXW 101524Z 31011KT 9999 FEW025CB BKN044 18/07 Q1018 TEMPO 6000 SHRA BKN020CB RMK BLU TEMPO WHT NW (310°) 12.7mph 18°C 7°C
10/07/20 15:50 EGXW 101450Z 29010KT 9999 SCT044 18/07 Q1017 TEMPO 7000 SHRA BKN024CB RMK BLU TEMPO WHT WNW (290°) 11.5mph 18°C 7°C
10/07/20 15:20 EGXW 101420Z 28008KT 9999 FEW025CB SCT036 18/08 Q1017 TEMPO 7000 SHRA BKN024CB RMK BLU TEMPO WHT W (280°) 9.2mph 18°C 8°C
10/07/20 14:50 EGXW 101350Z 29005KT 9999 FEW030 SCT035 16/08 Q1017 NOSIG RMK BLU BLU WNW (290°) 5.8mph 16°C 8°C
10/07/20 14:20 EGXW 101320Z 32005KT 9999 SCT030 BKN070 15/09 Q1017 NOSIG RMK BLU BLU NW (320°) 5.8mph 15°C 9°C
10/07/20 13:50 EGXW 101250Z 34006KT 9999 SCT030 BKN070 14/09 Q1017 NOSIG RMK BLU BLU NNW (340°) 6.9mph 14°C 9°C
10/07/20 13:21 EGXW 101221Z 27009KT 9999 -SHRA SCT028 BKN070 16/08 Q1017 TEMPO SCT024 RMK BLU TEMPO WHT -SHRA W (270°) 10.4mph 16°C 8°C
10/07/20 12:50 EGXW 101150Z 29009KT 9999 SCT028 BKN070 15/07 Q1017 TEMPO -SHRA SCT024 RMK BLU TEMPO WHT WNW (290°) 10.4mph 15°C 7°C
10/07/20 12:20 EGXW 101120Z 32010KT 9999 SCT033 SCT070 16/08 Q1016 TEMPO -SHRA SCT024 RMK BLU TEMPO WHT NW (320°) 11.5mph 16°C 8°C
10/07/20 11:50 EGXW 101050Z 32011KT 9999 SCT028 SCT070 17/09 Q1016 NOSIG RMK BLU BLU NW (320°) 12.7mph 17°C 9°C
10/07/20 11:20 EGXW 101020Z 31013KT 9999 SCT028 SCT060 16/10 Q1016 TEMPO SCT020 RMK BLU TEMPO WHT NW (310°) 15.0mph 16°C 10°C
10/07/20 10:50 EGXW 100950Z 32013KT 9999 SCT025 SCT055 15/09 Q1016 NOSIG RMK BLU BLU NW (320°) 15.0mph 15°C 9°C
10/07/20 10:21 EGXW 100921Z 30013KT 9999 FEW014 SCT020 14/09 Q1016 TEMPO SCT025 RMK WHT TEMPO BLU WNW (300°) 15.0mph 14°C 9°C
10/07/20 09:50 EGXW 100850Z 30010KT 9999 FEW012 SCT048 13/10 Q1015 TEMPO SCT020 RMK BLU TEMPO WHT WNW (300°) 11.5mph 13°C 10°C
10/07/20 09:20 EGXW 100820Z 29008KT 9999 FEW005 BKN015 12/10 Q1015 BECMG FEW020 SCT030 RMK WHT BECMG BLU WNW (290°) 9.2mph 12°C 10°C
10/07/20 08:50 EGXW 100750Z 28008KT 9999 SCT008 BKN009 BKN020 12/11 Q1015 BECMG FEW020 SCT030 RMK GRN BECMG BLU W (280°) 9.2mph 12°C 11°C